sensor_id;sensor_type;location;lat;lon;timestamp;P1;durP1;ratioP1;P2;durP2;ratioP2
26303;SDS011;70693;48.680;8.890;2023-07-13T00:00:23;3.92;;;0.80;;
26303;SDS011;70693;48.680;8.890;2023-07-13T00:02:48;3.85;;;1.00;;
26303;SDS011;70693;48.680;8.890;2023-07-13T00:05:14;5.22;;;1.05;;
26303;SDS011;70693;48.680;8.890;2023-07-13T00:07:40;6.75;;;0.95;;
26303;SDS011;70693;48.680;8.890;2023-07-13T00:10:05;3.10;;;0.90;;
26303;SDS011;70693;48.680;8.890;2023-07-13T00:12:32;3.00;;;0.85;;
26303;SDS011;70693;48.680;8.890;2023-07-13T00:15:01;2.50;;;0.85;;
26303;SDS011;70693;48.680;8.890;2023-07-13T00:17:29;2.30;;;0.90;;
26303;SDS011;70693;48.680;8.890;2023-07-13T00:19:55;3.65;;;0.93;;
26303;SDS011;70693;48.680;8.890;2023-07-13T00:22:22;4.65;;;1.00;;
26303;SDS011;70693;48.680;8.890;2023-07-13T00:24:50;4.90;;;1.20;;
26303;SDS011;70693;48.680;8.890;2023-07-13T00:27:21;7.85;;;1.17;;
26303;SDS011;70693;48.680;8.890;2023-07-13T00:29:48;6.93;;;1.10;;
26303;SDS011;70693;48.680;8.890;2023-07-13T00:32:13;3.15;;;1.08;;
26303;SDS011;70693;48.680;8.890;2023-07-13T00:34:39;4.85;;;1.20;;
26303;SDS011;70693;48.680;8.890;2023-07-13T00:37:06;8.45;;;1.10;;
26303;SDS011;70693;48.680;8.890;2023-07-13T00:39:35;4.45;;;1.00;;
26303;SDS011;70693;48.680;8.890;2023-07-13T00:42:01;6.18;;;1.08;;
26303;SDS011;70693;48.680;8.890;2023-07-13T00:44:27;5.95;;;1.20;;
26303;SDS011;70693;48.680;8.890;2023-07-13T00:46:53;5.18;;;1.08;;
26303;SDS011;70693;48.680;8.890;2023-07-13T00:49:21;8.65;;;1.20;;
26303;SDS011;70693;48.680;8.890;2023-07-13T00:51:52;7.53;;;0.95;;
26303;SDS011;70693;48.680;8.890;2023-07-13T00:54:29;3.35;;;1.17;;
26303;SDS011;70693;48.680;8.890;2023-07-13T00:56:59;6.07;;;0.82;;
26303;SDS011;70693;48.680;8.890;2023-07-13T00:59:29;4.25;;;0.93;;
26303;SDS011;70693;48.680;8.890;2023-07-13T01:01:56;5.45;;;1.05;;
26303;SDS011;70693;48.680;8.890;2023-07-13T01:04:23;7.18;;;1.15;;
26303;SDS011;70693;48.680;8.890;2023-07-13T01:06:50;2.97;;;1.00;;
26303;SDS011;70693;48.680;8.890;2023-07-13T01:09:16;3.70;;;1.15;;
26303;SDS011;70693;48.680;8.890;2023-07-13T01:11:42;4.97;;;0.88;;
26303;SDS011;70693;48.680;8.890;2023-07-13T01:14:10;7.95;;;1.10;;
26303;SDS011;70693;48.680;8.890;2023-07-13T01:16:36;3.17;;;0.80;;
26303;SDS011;70693;48.680;8.890;2023-07-13T01:19:03;3.13;;;1.00;;
26303;SDS011;70693;48.680;8.890;2023-07-13T01:21:39;7.95;;;1.00;;
26303;SDS011;70693;48.680;8.890;2023-07-13T01:24:07;3.17;;;0.90;;
26303;SDS011;70693;48.680;8.890;2023-07-13T01:26:34;5.00;;;1.10;;
26303;SDS011;70693;48.680;8.890;2023-07-13T01:29:00;7.38;;;1.10;;
26303;SDS011;70693;48.680;8.890;2023-07-13T01:31:25;4.05;;;1.00;;
26303;SDS011;70693;48.680;8.890;2023-07-13T01:33:51;6.03;;;1.10;;
26303;SDS011;70693;48.680;8.890;2023-07-13T01:36:17;4.35;;;0.82;;
26303;SDS011;70693;48.680;8.890;2023-07-13T01:38:42;6.32;;;1.10;;
26303;SDS011;70693;48.680;8.890;2023-07-13T01:41:08;6.68;;;0.98;;
26303;SDS011;70693;48.680;8.890;2023-07-13T01:43:33;5.10;;;1.00;;
26303;SDS011;70693;48.680;8.890;2023-07-13T01:45:59;4.50;;;1.00;;
26303;SDS011;70693;48.680;8.890;2023-07-13T01:48:25;3.35;;;0.80;;
26303;SDS011;70693;48.680;8.890;2023-07-13T01:50:50;4.18;;;1.00;;
26303;SDS011;70693;48.680;8.890;2023-07-13T01:53:16;4.05;;;1.15;;
26303;SDS011;70693;48.680;8.890;2023-07-13T01:55:41;7.63;;;1.33;;
26303;SDS011;70693;48.680;8.890;2023-07-13T01:58:07;3.65;;;1.00;;
26303;SDS011;70693;48.680;8.890;2023-07-13T02:00:33;4.00;;;1.00;;
26303;SDS011;70693;48.680;8.890;2023-07-13T02:02:59;1.95;;;0.75;;
26303;SDS011;70693;48.680;8.890;2023-07-13T02:05:24;4.07;;;1.13;;
26303;SDS011;70693;48.680;8.890;2023-07-13T02:07:50;4.28;;;0.80;;
26303;SDS011;70693;48.680;8.890;2023-07-13T02:10:16;11.02;;;1.30;;
26303;SDS011;70693;48.680;8.890;2023-07-13T02:12:42;7.25;;;1.05;;
26303;SDS011;70693;48.680;8.890;2023-07-13T02:15:08;8.63;;;1.23;;
26303;SDS011;70693;48.680;8.890;2023-07-13T02:17:35;4.18;;;1.02;;
26303;SDS011;70693;48.680;8.890;2023-07-13T02:20:01;5.75;;;0.90;;
26303;SDS011;70693;48.680;8.890;2023-07-13T02:22:28;3.47;;;1.08;;
26303;SDS011;70693;48.680;8.890;2023-07-13T02:24:54;7.65;;;1.00;;
26303;SDS011;70693;48.680;8.890;2023-07-13T02:27:19;3.72;;;0.80;;
26303;SDS011;70693;48.680;8.890;2023-07-13T02:29:45;2.08;;;0.90;;
26303;SDS011;70693;48.680;8.890;2023-07-13T02:32:11;5.18;;;1.05;;
26303;SDS011;70693;48.680;8.890;2023-07-13T02:34:37;4.28;;;0.90;;
26303;SDS011;70693;48.680;8.890;2023-07-13T02:37:03;2.67;;;0.85;;
26303;SDS011;70693;48.680;8.890;2023-07-13T02:39:29;4.55;;;1.00;;
26303;SDS011;70693;48.680;8.890;2023-07-13T02:41:57;3.42;;;0.98;;
26303;SDS011;70693;48.680;8.890;2023-07-13T02:44:24;6.75;;;0.98;;
26303;SDS011;70693;48.680;8.890;2023-07-13T02:46:49;7.38;;;1.08;;
26303;SDS011;70693;48.680;8.890;2023-07-13T02:49:15;8.32;;;1.30;;
26303;SDS011;70693;48.680;8.890;2023-07-13T02:51:41;3.38;;;0.68;;
26303;SDS011;70693;48.680;8.890;2023-07-13T02:54:06;2.70;;;0.93;;
26303;SDS011;70693;48.680;8.890;2023-07-13T02:56:33;5.68;;;1.05;;
26303;SDS011;70693;48.680;8.890;2023-07-13T02:58:59;3.45;;;1.10;;
26303;SDS011;70693;48.680;8.890;2023-07-13T03:01:25;5.97;;;1.00;;
26303;SDS011;70693;48.680;8.890;2023-07-13T03:03:51;3.47;;;0.90;;
26303;SDS011;70693;48.680;8.890;2023-07-13T03:06:17;3.30;;;0.82;;
26303;SDS011;70693;48.680;8.890;2023-07-13T03:08:43;5.38;;;1.13;;
26303;SDS011;70693;48.680;8.890;2023-07-13T03:11:11;5.90;;;0.93;;
26303;SDS011;70693;48.680;8.890;2023-07-13T03:13:39;6.28;;;1.02;;
26303;SDS011;70693;48.680;8.890;2023-07-13T03:16:05;2.08;;;0.80;;
26303;SDS011;70693;48.680;8.890;2023-07-13T03:18:32;5.53;;;1.05;;
26303;SDS011;70693;48.680;8.890;2023-07-13T03:20:57;2.97;;;0.90;;
26303;SDS011;70693;48.680;8.890;2023-07-13T03:23:24;4.28;;;1.00;;
26303;SDS011;70693;48.680;8.890;2023-07-13T03:25:50;4.50;;;1.17;;
26303;SDS011;70693;48.680;8.890;2023-07-13T03:28:16;3.10;;;1.00;;
26303;SDS011;70693;48.680;8.890;2023-07-13T03:30:41;5.63;;;0.88;;
26303;SDS011;70693;48.680;8.890;2023-07-13T03:33:07;3.80;;;0.88;;
26303;SDS011;70693;48.680;8.890;2023-07-13T03:35:33;4.82;;;0.70;;
26303;SDS011;70693;48.680;8.890;2023-07-13T03:37:59;3.20;;;1.05;;
26303;SDS011;70693;48.680;8.890;2023-07-13T03:40:26;5.30;;;1.10;;
26303;SDS011;70693;48.680;8.890;2023-07-13T03:42:52;4.30;;;1.05;;
26303;SDS011;70693;48.680;8.890;2023-07-13T03:45:18;8.35;;;1.30;;
26303;SDS011;70693;48.680;8.890;2023-07-13T03:47:44;4.25;;;1.00;;
26303;SDS011;70693;48.680;8.890;2023-07-13T03:50:10;3.42;;;1.10;;
26303;SDS011;70693;48.680;8.890;2023-07-13T03:52:35;5.22;;;1.17;;
26303;SDS011;70693;48.680;8.890;2023-07-13T03:55:01;4.50;;;1.00;;
26303;SDS011;70693;48.680;8.890;2023-07-13T03:57:27;3.60;;;0.98;;
26303;SDS011;70693;48.680;8.890;2023-07-13T03:59:53;3.72;;;1.17;;
26303;SDS011;70693;48.680;8.890;2023-07-13T04:02:19;8.43;;;1.10;;
26303;SDS011;70693;48.680;8.890;2023-07-13T04:04:45;10.45;;;1.10;;
26303;SDS011;70693;48.680;8.890;2023-07-13T04:07:11;3.72;;;1.00;;
26303;SDS011;70693;48.680;8.890;2023-07-13T04:09:37;7.80;;;1.35;;
26303;SDS011;70693;48.680;8.890;2023-07-13T04:12:03;5.07;;;1.38;;
26303;SDS011;70693;48.680;8.890;2023-07-13T04:14:29;4.47;;;1.05;;
26303;SDS011;70693;48.680;8.890;2023-07-13T04:16:55;6.63;;;1.30;;
26303;SDS011;70693;48.680;8.890;2023-07-13T04:19:21;6.40;;;1.48;;
26303;SDS011;70693;48.680;8.890;2023-07-13T04:21:46;5.05;;;1.00;;
26303;SDS011;70693;48.680;8.890;2023-07-13T04:24:12;3.38;;;1.40;;
26303;SDS011;70693;48.680;8.890;2023-07-13T04:26:38;5.38;;;1.08;;
26303;SDS011;70693;48.680;8.890;2023-07-13T04:29:04;5.68;;;1.35;;
26303;SDS011;70693;48.680;8.890;2023-07-13T04:31:31;7.25;;;1.15;;
26303;SDS011;70693;48.680;8.890;2023-07-13T04:33:57;8.68;;;1.35;;
26303;SDS011;70693;48.680;8.890;2023-07-13T04:36:22;6.20;;;1.30;;
26303;SDS011;70693;48.680;8.890;2023-07-13T04:38:50;5.32;;;0.90;;
26303;SDS011;70693;48.680;8.890;2023-07-13T04:41:16;5.50;;;0.90;;
26303;SDS011;70693;48.680;8.890;2023-07-13T04:43:41;7.47;;;1.35;;
26303;SDS011;70693;48.680;8.890;2023-07-13T04:46:09;5.95;;;1.20;;
26303;SDS011;70693;48.680;8.890;2023-07-13T04:48:37;4.43;;;1.20;;
26303;SDS011;70693;48.680;8.890;2023-07-13T04:51:03;4.57;;;1.17;;
26303;SDS011;70693;48.680;8.890;2023-07-13T04:53:29;3.78;;;1.20;;
26303;SDS011;70693;48.680;8.890;2023-07-13T04:55:56;5.28;;;0.98;;
26303;SDS011;70693;48.680;8.890;2023-07-13T04:58:22;5.90;;;1.17;;
26303;SDS011;70693;48.680;8.890;2023-07-13T05:00:48;9.35;;;1.63;;
26303;SDS011;70693;48.680;8.890;2023-07-13T05:03:14;6.47;;;1.30;;
26303;SDS011;70693;48.680;8.890;2023-07-13T05:05:39;3.38;;;1.10;;
26303;SDS011;70693;48.680;8.890;2023-07-13T05:08:05;6.28;;;1.10;;
26303;SDS011;70693;48.680;8.890;2023-07-13T05:10:32;3.97;;;1.40;;
26303;SDS011;70693;48.680;8.890;2023-07-13T05:12:58;3.30;;;1.13;;
26303;SDS011;70693;48.680;8.890;2023-07-13T05:15:23;6.50;;;1.17;;
26303;SDS011;70693;48.680;8.890;2023-07-13T05:17:50;9.75;;;1.40;;
26303;SDS011;70693;48.680;8.890;2023-07-13T05:20:16;5.00;;;1.10;;
26303;SDS011;70693;48.680;8.890;2023-07-13T05:22:43;3.95;;;1.30;;
26303;SDS011;70693;48.680;8.890;2023-07-13T05:25:11;2.75;;;1.13;;
26303;SDS011;70693;48.680;8.890;2023-07-13T05:27:38;3.92;;;1.30;;
26303;SDS011;70693;48.680;8.890;2023-07-13T05:30:04;4.82;;;1.30;;
26303;SDS011;70693;48.680;8.890;2023-07-13T05:32:30;7.53;;;1.67;;
26303;SDS011;70693;48.680;8.890;2023-07-13T05:34:56;8.38;;;1.63;;
26303;SDS011;70693;48.680;8.890;2023-07-13T05:37:21;3.83;;;1.20;;
26303;SDS011;70693;48.680;8.890;2023-07-13T05:39:47;3.80;;;1.17;;
26303;SDS011;70693;48.680;8.890;2023-07-13T05:42:13;4.80;;;1.10;;
26303;SDS011;70693;48.680;8.890;2023-07-13T05:44:38;3.50;;;1.08;;
26303;SDS011;70693;48.680;8.890;2023-07-13T05:47:04;3.95;;;1.27;;
26303;SDS011;70693;48.680;8.890;2023-07-13T05:49:30;8.25;;;1.80;;
26303;SDS011;70693;48.680;8.890;2023-07-13T05:51:56;3.20;;;1.20;;
26303;SDS011;70693;48.680;8.890;2023-07-13T05:54:22;5.90;;;1.33;;
26303;SDS011;70693;48.680;8.890;2023-07-13T05:56:48;4.00;;;1.20;;
26303;SDS011;70693;48.680;8.890;2023-07-13T05:59:13;5.40;;;1.10;;
26303;SDS011;70693;48.680;8.890;2023-07-13T06:01:39;5.10;;;1.08;;
26303;SDS011;70693;48.680;8.890;2023-07-13T06:04:05;6.55;;;1.60;;
26303;SDS011;70693;48.680;8.890;2023-07-13T06:06:31;4.15;;;1.00;;
26303;SDS011;70693;48.680;8.890;2023-07-13T06:08:57;5.18;;;1.23;;
26303;SDS011;70693;48.680;8.890;2023-07-13T06:11:24;4.75;;;1.15;;
26303;SDS011;70693;48.680;8.890;2023-07-13T06:13:51;3.22;;;1.08;;
26303;SDS011;70693;48.680;8.890;2023-07-13T06:16:16;3.38;;;1.55;;
26303;SDS011;70693;48.680;8.890;2023-07-13T06:18:43;6.80;;;1.50;;
26303;SDS011;70693;48.680;8.890;2023-07-13T06:21:13;4.00;;;1.20;;
26303;SDS011;70693;48.680;8.890;2023-07-13T06:23:41;3.58;;;1.17;;
26303;SDS011;70693;48.680;8.890;2023-07-13T06:26:08;4.13;;;1.30;;
26303;SDS011;70693;48.680;8.890;2023-07-13T06:28:35;4.18;;;1.20;;
26303;SDS011;70693;48.680;8.890;2023-07-13T06:31:01;6.95;;;1.40;;
26303;SDS011;70693;48.680;8.890;2023-07-13T06:33:30;5.45;;;1.65;;
26303;SDS011;70693;48.680;8.890;2023-07-13T06:35:55;4.13;;;1.00;;
26303;SDS011;70693;48.680;8.890;2023-07-13T06:38:21;8.73;;;1.20;;
26303;SDS011;70693;48.680;8.890;2023-07-13T06:40:47;9.63;;;1.58;;
26303;SDS011;70693;48.680;8.890;2023-07-13T06:43:12;5.93;;;1.38;;
26303;SDS011;70693;48.680;8.890;2023-07-13T06:45:42;4.75;;;1.15;;
26303;SDS011;70693;48.680;8.890;2023-07-13T06:48:12;8.85;;;1.63;;
26303;SDS011;70693;48.680;8.890;2023-07-13T06:50:39;4.97;;;1.05;;
26303;SDS011;70693;48.680;8.890;2023-07-13T06:53:05;1.77;;;0.85;;
26303;SDS011;70693;48.680;8.890;2023-07-13T06:55:31;5.65;;;1.48;;
26303;SDS011;70693;48.680;8.890;2023-07-13T06:57:57;3.88;;;1.00;;
26303;SDS011;70693;48.680;8.890;2023-07-13T07:00:23;5.00;;;1.13;;
26303;SDS011;70693;48.680;8.890;2023-07-13T07:02:48;6.32;;;1.80;;
26303;SDS011;70693;48.680;8.890;2023-07-13T07:05:14;5.10;;;1.50;;
26303;SDS011;70693;48.680;8.890;2023-07-13T07:07:40;3.95;;;1.20;;
26303;SDS011;70693;48.680;8.890;2023-07-13T07:10:06;3.40;;;1.10;;
26303;SDS011;70693;48.680;8.890;2023-07-13T07:12:32;7.88;;;1.40;;
26303;SDS011;70693;48.680;8.890;2023-07-13T07:14:57;4.97;;;1.08;;
26303;SDS011;70693;48.680;8.890;2023-07-13T07:17:23;3.85;;;1.25;;
26303;SDS011;70693;48.680;8.890;2023-07-13T07:19:50;6.35;;;1.20;;
26303;SDS011;70693;48.680;8.890;2023-07-13T07:22:15;5.13;;;1.13;;
26303;SDS011;70693;48.680;8.890;2023-07-13T07:24:41;2.92;;;1.00;;
26303;SDS011;70693;48.680;8.890;2023-07-13T07:27:07;3.85;;;1.10;;
26303;SDS011;70693;48.680;8.890;2023-07-13T07:29:32;3.97;;;1.20;;
26303;SDS011;70693;48.680;8.890;2023-07-13T07:31:59;2.70;;;0.90;;
26303;SDS011;70693;48.680;8.890;2023-07-13T07:34:25;4.07;;;1.05;;
26303;SDS011;70693;48.680;8.890;2023-07-13T07:36:51;3.10;;;1.00;;
26303;SDS011;70693;48.680;8.890;2023-07-13T07:39:16;3.30;;;1.20;;
26303;SDS011;70693;48.680;8.890;2023-07-13T07:41:42;5.75;;;1.15;;
26303;SDS011;70693;48.680;8.890;2023-07-13T07:44:08;2.38;;;1.00;;
26303;SDS011;70693;48.680;8.890;2023-07-13T07:46:34;2.15;;;1.00;;
26303;SDS011;70693;48.680;8.890;2023-07-13T07:49:00;4.07;;;0.98;;
26303;SDS011;70693;48.680;8.890;2023-07-13T07:51:26;1.50;;;0.93;;
26303;SDS011;70693;48.680;8.890;2023-07-13T07:53:51;3.47;;;1.00;;
26303;SDS011;70693;48.680;8.890;2023-07-13T07:56:17;2.75;;;1.10;;
26303;SDS011;70693;48.680;8.890;2023-07-13T07:58:43;3.58;;;1.08;;
26303;SDS011;70693;48.680;8.890;2023-07-13T08:01:09;4.07;;;0.90;;
26303;SDS011;70693;48.680;8.890;2023-07-13T08:03:35;2.28;;;1.02;;
26303;SDS011;70693;48.680;8.890;2023-07-13T08:06:00;2.67;;;1.20;;
26303;SDS011;70693;48.680;8.890;2023-07-13T08:08:26;1.77;;;0.80;;
26303;SDS011;70693;48.680;8.890;2023-07-13T08:10:52;1.67;;;0.80;;
26303;SDS011;70693;48.680;8.890;2023-07-13T08:13:18;2.85;;;1.08;;
26303;SDS011;70693;48.680;8.890;2023-07-13T08:15:44;2.85;;;1.00;;
26303;SDS011;70693;48.680;8.890;2023-07-13T08:18:11;0.93;;;0.60;;
26303;SDS011;70693;48.680;8.890;2023-07-13T08:20:39;1.70;;;0.80;;
26303;SDS011;70693;48.680;8.890;2023-07-13T08:23:06;2.67;;;0.85;;
26303;SDS011;70693;48.680;8.890;2023-07-13T08:25:34;2.38;;;0.88;;
26303;SDS011;70693;48.680;8.890;2023-07-13T08:28:00;2.33;;;0.70;;
26303;SDS011;70693;48.680;8.890;2023-07-13T08:30:26;2.38;;;0.82;;
26303;SDS011;70693;48.680;8.890;2023-07-13T08:32:52;1.63;;;0.77;;
26303;SDS011;70693;48.680;8.890;2023-07-13T08:35:18;2.03;;;0.90;;
26303;SDS011;70693;48.680;8.890;2023-07-13T08:37:44;1.25;;;0.70;;
26303;SDS011;70693;48.680;8.890;2023-07-13T08:40:10;2.47;;;0.93;;
26303;SDS011;70693;48.680;8.890;2023-07-13T08:42:57;1.05;;;0.65;;
26303;SDS011;70693;48.680;8.890;2023-07-13T08:47:54;1.30;;;0.73;;
26303;SDS011;70693;48.680;8.890;2023-07-13T08:50:22;2.10;;;0.80;;
26303;SDS011;70693;48.680;8.890;2023-07-13T08:52:52;1.45;;;0.60;;
26303;SDS011;70693;48.680;8.890;2023-07-13T08:55:20;2.08;;;0.80;;
26303;SDS011;70693;48.680;8.890;2023-07-13T08:57:54;1.42;;;0.70;;
26303;SDS011;70693;48.680;8.890;2023-07-13T09:00:27;1.27;;;0.70;;
26303;SDS011;70693;48.680;8.890;2023-07-13T09:03:05;2.53;;;0.80;;
26303;SDS011;70693;48.680;8.890;2023-07-13T09:05:45;2.25;;;0.75;;
26303;SDS011;70693;48.680;8.890;2023-07-13T09:11:13;1.00;;;0.60;;
26303;SDS011;70693;48.680;8.890;2023-07-13T09:16:47;3.85;;;0.70;;
26303;SDS011;70693;48.680;8.890;2023-07-13T09:19:18;2.10;;;0.90;;
26303;SDS011;70693;48.680;8.890;2023-07-13T09:21:49;1.80;;;0.70;;
26303;SDS011;70693;48.680;8.890;2023-07-13T09:27:15;1.55;;;0.90;;
26303;SDS011;70693;48.680;8.890;2023-07-13T09:29:47;2.20;;;0.70;;
26303;SDS011;70693;48.680;8.890;2023-07-13T09:32:19;2.00;;;0.88;;
26303;SDS011;70693;48.680;8.890;2023-07-13T09:34:50;2.67;;;0.77;;
26303;SDS011;70693;48.680;8.890;2023-07-13T09:37:18;2.75;;;0.90;;
26303;SDS011;70693;48.680;8.890;2023-07-13T09:39:45;3.25;;;0.95;;
26303;SDS011;70693;48.680;8.890;2023-07-13T09:42:19;3.47;;;0.80;;
26303;SDS011;70693;48.680;8.890;2023-07-13T09:47:15;2.17;;;0.77;;
26303;SDS011;70693;48.680;8.890;2023-07-13T09:49:42;4.13;;;0.80;;
26303;SDS011;70693;48.680;8.890;2023-07-13T09:52:13;2.33;;;0.70;;
26303;SDS011;70693;48.680;8.890;2023-07-13T09:54:43;1.20;;;0.73;;
26303;SDS011;70693;48.680;8.890;2023-07-13T09:57:17;2.00;;;0.80;;
26303;SDS011;70693;48.680;8.890;2023-07-13T09:59:49;2.78;;;0.70;;
26303;SDS011;70693;48.680;8.890;2023-07-13T10:02:26;2.47;;;0.88;;
26303;SDS011;70693;48.680;8.890;2023-07-13T10:04:58;1.67;;;0.70;;
26303;SDS011;70693;48.680;8.890;2023-07-13T10:09:55;1.95;;;0.95;;
26303;SDS011;70693;48.680;8.890;2023-07-13T10:12:26;2.00;;;0.75;;
26303;SDS011;70693;48.680;8.890;2023-07-13T10:14:56;5.13;;;1.00;;
26303;SDS011;70693;48.680;8.890;2023-07-13T10:17:31;1.27;;;0.60;;
26303;SDS011;70693;48.680;8.890;2023-07-13T10:20:02;1.33;;;0.60;;
26303;SDS011;70693;48.680;8.890;2023-07-13T10:22:43;1.83;;;0.60;;
26303;SDS011;70693;48.680;8.890;2023-07-13T10:25:28;1.73;;;0.80;;
26303;SDS011;70693;48.680;8.890;2023-07-13T10:28:04;2.03;;;0.70;;
26303;SDS011;70693;48.680;8.890;2023-07-13T10:30:39;2.20;;;0.70;;
26303;SDS011;70693;48.680;8.890;2023-07-13T10:33:11;1.58;;;0.70;;
26303;SDS011;70693;48.680;8.890;2023-07-13T10:35:38;1.50;;;0.80;;
26303;SDS011;70693;48.680;8.890;2023-07-13T10:38:11;1.55;;;0.80;;
26303;SDS011;70693;48.680;8.890;2023-07-13T10:40:42;2.10;;;0.80;;
26303;SDS011;70693;48.680;8.890;2023-07-13T10:43:28;2.92;;;0.70;;
26303;SDS011;70693;48.680;8.890;2023-07-13T10:45:59;2.83;;;0.77;;
26303;SDS011;70693;48.680;8.890;2023-07-13T10:48:26;3.05;;;0.90;;
26303;SDS011;70693;48.680;8.890;2023-07-13T10:50:54;2.67;;;0.63;;
26303;SDS011;70693;48.680;8.890;2023-07-13T10:53:33;0.85;;;0.47;;
26303;SDS011;70693;48.680;8.890;2023-07-13T10:56:02;2.38;;;0.65;;
26303;SDS011;70693;48.680;8.890;2023-07-13T10:58:46;1.70;;;0.68;;
26303;SDS011;70693;48.680;8.890;2023-07-13T11:01:25;1.80;;;0.80;;
26303;SDS011;70693;48.680;8.890;2023-07-13T11:04:05;1.00;;;0.52;;
26303;SDS011;70693;48.680;8.890;2023-07-13T11:06:37;1.15;;;0.60;;
26303;SDS011;70693;48.680;8.890;2023-07-13T11:20:32;1.20;;;0.70;;
26303;SDS011;70693;48.680;8.890;2023-07-13T11:23:17;1.58;;;0.70;;
26303;SDS011;70693;48.680;8.890;2023-07-13T11:25:45;1.05;;;0.55;;
26303;SDS011;70693;48.680;8.890;2023-07-13T11:30:41;2.35;;;0.57;;
26303;SDS011;70693;48.680;8.890;2023-07-13T11:33:22;1.58;;;0.80;;
26303;SDS011;70693;48.680;8.890;2023-07-13T11:36:04;1.85;;;0.60;;
26303;SDS011;70693;48.680;8.890;2023-07-13T11:38:31;2.00;;;0.63;;
26303;SDS011;70693;48.680;8.890;2023-07-13T11:41:03;1.17;;;0.77;;
26303;SDS011;70693;48.680;8.890;2023-07-13T11:43:40;1.00;;;0.50;;
26303;SDS011;70693;48.680;8.890;2023-07-13T11:46:14;2.45;;;0.70;;
26303;SDS011;70693;48.680;8.890;2023-07-13T11:48:41;0.75;;;0.60;;
26303;SDS011;70693;48.680;8.890;2023-07-13T11:51:11;0.80;;;0.40;;
26303;SDS011;70693;48.680;8.890;2023-07-13T11:53:46;1.85;;;0.68;;
26303;SDS011;70693;48.680;8.890;2023-07-13T11:56:14;3.28;;;0.63;;
26303;SDS011;70693;48.680;8.890;2023-07-13T11:58:40;1.13;;;0.57;;
26303;SDS011;70693;48.680;8.890;2023-07-13T12:01:06;1.23;;;0.80;;
26303;SDS011;70693;48.680;8.890;2023-07-13T12:03:43;3.78;;;0.50;;
26303;SDS011;70693;48.680;8.890;2023-07-13T12:09:10;3.00;;;0.85;;
26303;SDS011;70693;48.680;8.890;2023-07-13T12:11:45;1.73;;;0.68;;
26303;SDS011;70693;48.680;8.890;2023-07-13T12:14:17;2.55;;;0.65;;
26303;SDS011;70693;48.680;8.890;2023-07-13T12:16:44;2.13;;;0.88;;
26303;SDS011;70693;48.680;8.890;2023-07-13T12:19:18;1.80;;;0.55;;
26303;SDS011;70693;48.680;8.890;2023-07-13T12:21:47;0.98;;;0.60;;
26303;SDS011;70693;48.680;8.890;2023-07-13T12:24:15;0.93;;;0.50;;
26303;SDS011;70693;48.680;8.890;2023-07-13T12:26:42;1.23;;;0.70;;
26303;SDS011;70693;48.680;8.890;2023-07-13T12:29:11;1.40;;;0.60;;
26303;SDS011;70693;48.680;8.890;2023-07-13T12:31:42;2.88;;;0.82;;
26303;SDS011;70693;48.680;8.890;2023-07-13T12:34:13;5.18;;;1.10;;
26303;SDS011;70693;48.680;8.890;2023-07-13T12:37:02;5.38;;;1.38;;
26303;SDS011;70693;48.680;8.890;2023-07-13T12:42:24;3.47;;;0.98;;
26303;SDS011;70693;48.680;8.890;2023-07-13T12:44:53;3.22;;;1.38;;
26303;SDS011;70693;48.680;8.890;2023-07-13T12:47:29;4.30;;;1.25;;
26303;SDS011;70693;48.680;8.890;2023-07-13T12:49:56;3.17;;;0.90;;
26303;SDS011;70693;48.680;8.890;2023-07-13T12:52:28;8.27;;;1.30;;
26303;SDS011;70693;48.680;8.890;2023-07-13T12:54:56;2.58;;;1.27;;
26303;SDS011;70693;48.680;8.890;2023-07-13T12:57:24;4.32;;;1.20;;
26303;SDS011;70693;48.680;8.890;2023-07-13T12:59:54;2.38;;;1.08;;
26303;SDS011;70693;48.680;8.890;2023-07-13T13:02:25;4.78;;;1.27;;
26303;SDS011;70693;48.680;8.890;2023-07-13T13:04:55;3.17;;;1.23;;
26303;SDS011;70693;48.680;8.890;2023-07-13T13:07:22;4.25;;;1.15;;
26303;SDS011;70693;48.680;8.890;2023-07-13T13:09:48;3.38;;;1.10;;
26303;SDS011;70693;48.680;8.890;2023-07-13T13:12:14;3.47;;;1.40;;
26303;SDS011;70693;48.680;8.890;2023-07-13T13:14:43;2.88;;;1.02;;
26303;SDS011;70693;48.680;8.890;2023-07-13T13:17:24;1.88;;;0.98;;
26303;SDS011;70693;48.680;8.890;2023-07-13T13:19:54;2.10;;;1.00;;
26303;SDS011;70693;48.680;8.890;2023-07-13T13:22:21;2.63;;;1.10;;
26303;SDS011;70693;48.680;8.890;2023-07-13T13:24:47;3.22;;;0.90;;
26303;SDS011;70693;48.680;8.890;2023-07-13T13:27:16;2.13;;;1.08;;
26303;SDS011;70693;48.680;8.890;2023-07-13T13:29:44;2.65;;;1.02;;
26303;SDS011;70693;48.680;8.890;2023-07-13T13:32:13;3.50;;;1.15;;
26303;SDS011;70693;48.680;8.890;2023-07-13T13:34:40;2.35;;;1.10;;
26303;SDS011;70693;48.680;8.890;2023-07-13T13:37:24;3.00;;;1.20;;
26303;SDS011;70693;48.680;8.890;2023-07-13T13:39:51;2.95;;;1.10;;
26303;SDS011;70693;48.680;8.890;2023-07-13T13:42:18;3.00;;;1.20;;
26303;SDS011;70693;48.680;8.890;2023-07-13T13:44:46;2.50;;;1.10;;
26303;SDS011;70693;48.680;8.890;2023-07-13T13:47:25;2.63;;;0.90;;
26303;SDS011;70693;48.680;8.890;2023-07-13T13:49:55;2.15;;;1.10;;
26303;SDS011;70693;48.680;8.890;2023-07-13T13:52:21;1.73;;;0.85;;
26303;SDS011;70693;48.680;8.890;2023-07-13T13:54:47;1.45;;;0.90;;
26303;SDS011;70693;48.680;8.890;2023-07-13T13:57:14;1.65;;;1.00;;
26303;SDS011;70693;48.680;8.890;2023-07-13T13:59:39;2.63;;;1.15;;
26303;SDS011;70693;48.680;8.890;2023-07-13T14:02:25;2.85;;;1.27;;
26303;SDS011;70693;48.680;8.890;2023-07-13T14:04:54;2.20;;;0.95;;
26303;SDS011;70693;48.680;8.890;2023-07-13T14:07:24;1.10;;;0.70;;
26303;SDS011;70693;48.680;8.890;2023-07-13T14:09:54;1.80;;;1.00;;
26303;SDS011;70693;48.680;8.890;2023-07-13T14:12:22;2.17;;;1.10;;
26303;SDS011;70693;48.680;8.890;2023-07-13T14:14:51;1.60;;;0.90;;
26303;SDS011;70693;48.680;8.890;2023-07-13T14:17:23;2.95;;;0.90;;
26303;SDS011;70693;48.680;8.890;2023-07-13T14:19:52;1.67;;;1.00;;
26303;SDS011;70693;48.680;8.890;2023-07-13T14:22:22;1.58;;;0.80;;
26303;SDS011;70693;48.680;8.890;2023-07-13T14:24:49;3.08;;;1.20;;
26303;SDS011;70693;48.680;8.890;2023-07-13T14:27:16;1.67;;;1.00;;
26303;SDS011;70693;48.680;8.890;2023-07-13T14:29:42;2.47;;;1.00;;
26303;SDS011;70693;48.680;8.890;2023-07-13T14:32:11;2.33;;;1.00;;
26303;SDS011;70693;48.680;8.890;2023-07-13T14:34:37;2.05;;;1.10;;
26303;SDS011;70693;48.680;8.890;2023-07-13T14:37:03;1.60;;;0.80;;
26303;SDS011;70693;48.680;8.890;2023-07-13T14:39:30;2.72;;;0.75;;
26303;SDS011;70693;48.680;8.890;2023-07-13T14:41:56;1.63;;;0.85;;
26303;SDS011;70693;48.680;8.890;2023-07-13T14:44:29;2.78;;;0.90;;
26303;SDS011;70693;48.680;8.890;2023-07-13T14:46:59;2.00;;;0.73;;
26303;SDS011;70693;48.680;8.890;2023-07-13T14:49:42;1.83;;;0.80;;
26303;SDS011;70693;48.680;8.890;2023-07-13T14:52:10;2.03;;;0.88;;
26303;SDS011;70693;48.680;8.890;2023-07-13T14:54:38;1.58;;;0.95;;
26303;SDS011;70693;48.680;8.890;2023-07-13T14:57:10;3.13;;;0.85;;
26303;SDS011;70693;48.680;8.890;2023-07-13T14:59:36;1.40;;;0.80;;
26303;SDS011;70693;48.680;8.890;2023-07-13T15:02:02;1.90;;;0.70;;
26303;SDS011;70693;48.680;8.890;2023-07-13T15:04:36;1.65;;;1.05;;
26303;SDS011;70693;48.680;8.890;2023-07-13T15:07:02;1.42;;;0.90;;
26303;SDS011;70693;48.680;8.890;2023-07-13T15:09:28;2.83;;;0.90;;
26303;SDS011;70693;48.680;8.890;2023-07-13T15:11:57;2.22;;;1.00;;
26303;SDS011;70693;48.680;8.890;2023-07-13T15:14:23;3.72;;;0.80;;
26303;SDS011;70693;48.680;8.890;2023-07-13T15:16:50;1.33;;;0.80;;
26303;SDS011;70693;48.680;8.890;2023-07-13T15:19:19;3.47;;;0.88;;
26303;SDS011;70693;48.680;8.890;2023-07-13T15:21:46;1.50;;;1.00;;
26303;SDS011;70693;48.680;8.890;2023-07-13T15:24:13;2.50;;;0.80;;
26303;SDS011;70693;48.680;8.890;2023-07-13T15:26:39;1.00;;;0.70;;
26303;SDS011;70693;48.680;8.890;2023-07-13T15:29:05;1.45;;;0.77;;